createdAt,value
2022-12-08T00:05:44.590Z,3.65
2022-12-08T00:15:47.561Z,3.72
2022-12-08T00:25:51.879Z,3.75
2022-12-08T00:35:54.822Z,3.73
2022-12-08T00:45:59.227Z,3.82
2022-12-08T00:56:02.235Z,3.81
2022-12-08T01:06:07.759Z,3.79
2022-12-08T01:16:11.624Z,3.76
2022-12-08T01:26:17.771Z,3.81
2022-12-08T01:36:23.204Z,3.90
2022-12-08T01:46:29.619Z,3.96
2022-12-08T01:56:37.681Z,3.95
2022-12-08T02:06:44.990Z,3.91
2022-12-08T02:16:58.540Z,3.93
2022-12-08T02:27:32.558Z,3.95
2022-12-08T02:37:43.180Z,3.89
2022-12-08T02:47:46.339Z,3.90
2022-12-08T02:58:27.642Z,3.92
2022-12-08T03:08:37.209Z,3.91
2022-12-08T03:18:44.435Z,3.94
2022-12-08T03:28:48.955Z,3.97
2022-12-08T03:38:53.872Z,4.06
2022-12-08T03:48:58.452Z,4.05
2022-12-08T03:59:01.872Z,4.09
2022-12-08T04:09:06.237Z,4.16
2022-12-08T04:19:09.198Z,4.16
2022-12-08T04:29:13.516Z,4.13
2022-12-08T04:39:16.452Z,4.10
2022-12-08T04:49:20.771Z,4.06
2022-12-08T04:59:23.653Z,4.01
2022-12-08T05:09:28.184Z,4.03
2022-12-08T05:19:31.142Z,4.00
2022-12-08T05:29:35.478Z,4.00
2022-12-08T05:39:38.675Z,3.96
2022-12-08T05:49:42.980Z,3.87
2022-12-08T05:59:45.907Z,3.83
2022-12-08T06:09:50.237Z,3.81
2022-12-08T06:19:53.223Z,3.75
2022-12-08T06:29:57.654Z,3.81
2022-12-08T06:40:00.610Z,3.77
2022-12-08T06:50:07.756Z,3.73
2022-12-08T07:00:11.996Z,3.75
2022-12-08T07:10:16.441Z,3.82
2022-12-08T07:20:19.608Z,3.84
2022-12-08T07:30:24.005Z,3.89
2022-12-08T07:40:27.085Z,3.87
2022-12-08T07:50:31.455Z,3.90
2022-12-08T08:00:34.593Z,3.87
2022-12-08T08:10:38.956Z,3.68
2022-12-08T08:20:42.402Z,3.68
2022-12-08T08:30:48.226Z,3.68
2022-12-08T08:40:51.453Z,3.76
2022-12-08T08:50:56.728Z,3.82
2022-12-08T09:00:59.633Z,3.84
2022-12-08T09:11:04.072Z,3.94
2022-12-08T09:21:08.410Z,4.02
2022-12-08T09:31:12.894Z,4.06
2022-12-08T09:41:18.944Z,4.22
2022-12-08T09:51:25.186Z,4.32
2022-12-08T10:01:30.248Z,4.26
2022-12-08T10:11:45.815Z,4.18
2022-12-08T10:21:49.532Z,4.11
2022-12-08T10:31:53.971Z,4.26
2022-12-08T10:42:02.757Z,4.21
2022-12-08T10:52:11.165Z,4.06
2022-12-08T11:02:23.004Z,3.90
2022-12-08T11:12:30.507Z,3.91
2022-12-08T11:22:37.071Z,3.82
2022-12-08T11:32:43.118Z,3.74
2022-12-08T11:42:54.925Z,3.85
2022-12-08T11:53:00.992Z,3.91
2022-12-08T12:03:13.923Z,3.92
2022-12-08T12:13:46.626Z,3.94
2022-12-08T12:23:55.753Z,4.02
2022-12-08T12:34:08.628Z,4.15
2022-12-08T12:44:41.007Z,4.16
2022-12-08T12:54:45.196Z,4.26
2022-12-08T13:04:58.026Z,4.40
2022-12-08T13:15:06.495Z,4.47
2022-12-08T13:25:55.795Z,4.53
2022-12-08T13:36:12.509Z,4.57
2022-12-08T13:57:05.631Z,4.50
2022-12-08T14:07:12.672Z,4.41
2022-12-08T14:17:19.946Z,4.36
2022-12-08T14:27:25.331Z,4.40
2022-12-08T14:37:32.756Z,4.16
2022-12-08T14:47:35.929Z,4.10
2022-12-08T14:57:40.312Z,3.93
2022-12-08T15:07:49.099Z,3.87
2022-12-08T15:18:03.224Z,3.66
2022-12-08T15:28:06.232Z,3.53
2022-12-08T15:38:23.323Z,3.21
2022-12-08T15:48:28.275Z,3.02
2022-12-08T15:58:53.063Z,2.84
2022-12-08T16:09:06.346Z,2.74
2022-12-08T16:19:17.124Z,2.77
2022-12-08T16:29:22.600Z,2.73
2022-12-08T16:39:26.979Z,2.60
2022-12-08T16:49:30.215Z,2.38
2022-12-08T16:59:34.495Z,2.16
2022-12-08T17:09:37.453Z,2.01
2022-12-08T17:19:41.839Z,2.18
2022-12-08T17:29:44.781Z,2.30
2022-12-08T17:39:49.119Z,2.33
2022-12-08T17:49:52.269Z,2.42
2022-12-08T17:59:56.732Z,2.48
2022-12-08T18:09:59.664Z,2.53
2022-12-08T18:20:04.510Z,2.58
2022-12-08T18:30:09.088Z,2.65
2022-12-08T18:40:14.746Z,2.64
2022-12-08T18:50:18.257Z,2.69
2022-12-08T19:00:22.812Z,2.62
2022-12-08T19:10:26.108Z,2.67
2022-12-08T19:20:30.488Z,2.70
2022-12-08T19:30:33.661Z,2.68
2022-12-08T19:40:55.714Z,2.72
2022-12-08T19:50:58.879Z,2.65
2022-12-08T20:01:03.201Z,2.60
2022-12-08T20:11:06.410Z,2.36
2022-12-08T20:21:11.992Z,2.13
2022-12-08T20:31:22.236Z,1.85
2022-12-08T20:41:26.928Z,1.69
2022-12-08T20:51:31.991Z,1.71
2022-12-08T21:01:36.656Z,1.68
2022-12-08T21:11:39.865Z,1.67
2022-12-08T21:21:46.126Z,1.63
2022-12-08T21:31:49.625Z,1.59
2022-12-08T21:42:11.421Z,1.53
2022-12-08T21:52:14.588Z,1.43
2022-12-08T22:02:22.371Z,1.50
2022-12-08T22:12:26.136Z,1.53
2022-12-08T22:22:30.663Z,1.34
2022-12-08T22:32:33.780Z,1.13
2022-12-08T22:42:38.159Z,0.97
2022-12-08T22:52:41.434Z,0.82
2022-12-08T23:02:45.925Z,0.86
2022-12-08T23:12:49.129Z,1.05
2022-12-08T23:22:53.663Z,1.20
2022-12-08T23:32:57.337Z,1.35
2022-12-08T23:43:01.741Z,1.43
2022-12-08T23:53:04.828Z,1.54
